Time;durP1;ratioP1;P1;durP2;ratioP2;P2;SDS_P1;SDS_P2;PMS_P1;PMS_P2;Temp;Humidity;BMP_temperature;BMP_pressure;BME280_temperature;BME280_humidity;BME280_pressure;Samples;Min_cycle;Max_cycle;Signal;HPM_P1;HPM_P2
2020/12/26 00:00:49;;;;;;;2.65;1.27;;;;;;;;;;5105888;28;20123;-69
2020/12/26 00:03:15;;;;;;;1.10;1.00;;;;;;;;;;5106007;28;20039;-69
2020/12/26 00:05:41;;;;;;;1.25;0.93;;;;;;;;;;5104489;28;20110;-69
2020/12/26 00:08:07;;;;;;;1.48;0.93;;;;;;;;;;5106319;28;20027;-69
2020/12/26 00:10:34;;;;;;;1.00;0.60;;;;;;;;;;5106680;28;20039;-69
2020/12/26 00:13:00;;;;;;;0.95;0.60;;;;;;;;;;5105220;28;20130;-69
2020/12/26 00:15:26;;;;;;;0.47;0.47;;;;;;;;;;5106061;28;20024;-69
2020/12/26 00:17:52;;;;;;;1.20;1.10;;;;;;;;;;5106513;28;20053;-69
2020/12/26 00:20:19;;;;;;;0.75;0.63;;;;;;;;;;5109669;28;20115;-69
2020/12/26 00:22:45;;;;;;;1.10;0.90;;;;;;;;;;5108735;28;20070;-69
2020/12/26 00:25:11;;;;;;;1.40;0.50;;;;;;;;;;5109234;28;20024;-69
2020/12/26 00:27:37;;;;;;;0.60;0.60;;;;;;;;;;5109564;28;20023;-69
2020/12/26 00:30:03;;;;;;;0.40;0.40;;;;;;;;;;5108706;28;20035;-69
2020/12/26 00:32:30;;;;;;;1.05;0.65;;;;;;;;;;5109255;28;20024;-69
2020/12/26 00:34:56;;;;;;;0.52;0.52;;;;;;;;;;5107708;28;20027;-69
2020/12/26 00:37:22;;;;;;;0.47;0.47;;;;;;;;;;5101191;28;20020;-70
2020/12/26 00:39:48;;;;;;;1.13;0.68;;;;;;;;;;5088443;28;20046;-69
2020/12/26 00:42:14;;;;;;;0.65;0.60;;;;;;;;;;5088869;28;20047;-69
2020/12/26 00:44:40;;;;;;;0.55;0.55;;;;;;;;;;5087822;28;20016;-69
2020/12/26 00:47:06;;;;;;;0.40;0.40;;;;;;;;;;5088627;28;20028;-69
2020/12/26 00:49:32;;;;;;;0.73;0.60;;;;;;;;;;5088791;28;20020;-69
2020/12/26 00:51:58;;;;;;;0.50;0.50;;;;;;;;;;5088105;28;20585;-69
2020/12/26 00:54:24;;;;;;;1.65;0.52;;;;;;;;;;5088270;28;20030;-69
2020/12/26 00:56:50;;;;;;;0.70;0.60;;;;;;;;;;5087762;28;20024;-69
2020/12/26 00:59:16;;;;;;;0.70;0.70;;;;;;;;;;5088567;28;20028;-69
2020/12/26 01:01:43;;;;;;;0.30;0.30;;;;;;;;;;5088770;28;20107;-69
2020/12/26 01:04:09;;;;;;;0.30;0.30;;;;;;;;;;5088024;28;20020;-69
2020/12/26 01:06:35;;;;;;;0.30;0.30;;;;;;;;;;5087320;28;20032;-69
2020/12/26 01:09:01;;;;;;;0.50;0.50;;;;;;;;;;5088101;28;20024;-69
2020/12/26 01:11:27;;;;;;;0.55;0.40;;;;;;;;;;5088163;28;20578;-69
2020/12/26 01:13:53;;;;;;;0.40;0.40;;;;;;;;;;5087169;28;20050;-69
2020/12/26 01:16:19;;;;;;;0.65;0.63;;;;;;;;;;5088029;28;20063;-69
2020/12/26 01:18:45;;;;;;;0.52;0.40;;;;;;;;;;5106147;28;20478;-69
2020/12/26 01:21:14;;;;;;;0.65;0.43;;;;;;;;;;5108790;28;20026;-69
2020/12/26 01:23:42;;;;;;;0.40;0.40;;;;;;;;;;5107827;28;20028;-69
2020/12/26 01:26:08;;;;;;;0.45;0.40;;;;;;;;;;5108103;28;20110;-69
2020/12/26 01:28:34;;;;;;;0.63;0.55;;;;;;;;;;5107851;28;20059;-69
2020/12/26 01:31:00;;;;;;;0.52;0.40;;;;;;;;;;5107757;28;20658;-69
2020/12/26 01:33:26;;;;;;;0.50;0.45;;;;;;;;;;5107622;28;20551;-69
2020/12/26 01:35:52;;;;;;;0.30;0.30;;;;;;;;;;5106639;28;20051;-69
2020/12/26 01:38:18;;;;;;;1.15;0.55;;;;;;;;;;5108296;28;20106;-69
2020/12/26 01:40:48;;;;;;;0.55;0.55;;;;;;;;;;5107330;28;20038;-69
2020/12/26 01:43:14;;;;;;;0.30;0.30;;;;;;;;;;5108009;28;20016;-69
2020/12/26 01:45:40;;;;;;;0.38;0.38;;;;;;;;;;5107536;28;20530;-69
2020/12/26 01:48:06;;;;;;;0.70;0.35;;;;;;;;;;5099170;28;20119;-69
2020/12/26 01:50:33;;;;;;;0.40;0.20;;;;;;;;;;5087867;28;20032;-69
2020/12/26 01:52:59;;;;;;;0.30;0.30;;;;;;;;;;5087261;28;20482;-69
2020/12/26 01:55:25;;;;;;;0.55;0.40;;;;;;;;;;5087754;28;20034;-69
2020/12/26 01:57:52;;;;;;;0.40;0.40;;;;;;;;;;5087109;28;20031;-69
2020/12/26 02:00:19;;;;;;;0.20;0.20;;;;;;;;;;5087201;28;20055;-69
2020/12/26 02:02:45;;;;;;;0.75;0.63;;;;;;;;;;5086894;28;20035;-69
2020/12/26 02:05:11;;;;;;;0.73;0.73;;;;;;;;;;5086218;28;20041;-69
2020/12/26 02:07:37;;;;;;;0.63;0.60;;;;;;;;;;5087589;28;20028;-69
2020/12/26 02:10:04;;;;;;;1.00;0.90;;;;;;;;;;5086946;28;20036;-69
2020/12/26 02:12:31;;;;;;;0.40;0.40;;;;;;;;;;5087472;28;20134;-69
2020/12/26 02:14:57;;;;;;;0.70;0.30;;;;;;;;;;5086662;28;20024;-69
2020/12/26 02:17:26;;;;;;;0.47;0.30;;;;;;;;;;5087457;28;20051;-69
2020/12/26 02:19:52;;;;;;;0.35;0.20;;;;;;;;;;5086421;28;20323;-69
2020/12/26 02:22:18;;;;;;;0.47;0.22;;;;;;;;;;5087258;28;20024;-69
2020/12/26 02:24:44;;;;;;;0.63;0.40;;;;;;;;;;5086213;28;20024;-69
2020/12/26 02:27:11;;;;;;;0.57;0.35;;;;;;;;;;5087563;28;20227;-69
2020/12/26 02:29:37;;;;;;;0.38;0.30;;;;;;;;;;5086779;28;20083;-69
2020/12/26 02:32:03;;;;;;;0.40;0.40;;;;;;;;;;5086844;28;20028;-69
2020/12/26 02:34:29;;;;;;;0.28;0.28;;;;;;;;;;5086194;28;20062;-69
2020/12/26 02:36:55;;;;;;;1.50;0.38;;;;;;;;;;5089565;28;20027;-69
2020/12/26 02:39:21;;;;;;;0.88;0.60;;;;;;;;;;5107718;28;20027;-69
2020/12/26 02:41:48;;;;;;;0.30;0.30;;;;;;;;;;5105676;28;20043;-69
2020/12/26 02:44:14;;;;;;;0.50;0.50;;;;;;;;;;5106503;28;20028;-69
2020/12/26 02:46:40;;;;;;;0.52;0.50;;;;;;;;;;5106490;28;20036;-69
2020/12/26 02:49:07;;;;;;;0.40;0.40;;;;;;;;;;5107145;28;20020;-69
2020/12/26 02:51:36;;;;;;;0.50;0.50;;;;;;;;;;5107579;28;20079;-69
2020/12/26 02:54:02;;;;;;;0.20;0.20;;;;;;;;;;5106276;28;20019;-69
2020/12/26 02:56:28;;;;;;;0.38;0.38;;;;;;;;;;5107293;28;20027;-69
2020/12/26 02:58:54;;;;;;;2.00;0.50;;;;;;;;;;5106045;28;20478;-69
2020/12/26 03:01:20;;;;;;;0.35;0.35;;;;;;;;;;5107273;28;20031;-69
2020/12/26 03:03:46;;;;;;;0.40;0.40;;;;;;;;;;5105703;28;20080;-69
2020/12/26 03:06:12;;;;;;;0.45;0.45;;;;;;;;;;5105709;28;20032;-69
2020/12/26 03:08:39;;;;;;;0.50;0.50;;;;;;;;;;5106581;28;20031;-69
2020/12/26 03:11:05;;;;;;;0.45;0.40;;;;;;;;;;5106891;28;20244;-69
2020/12/26 03:13:31;;;;;;;0.30;0.30;;;;;;;;;;5106364;28;20494;-69
2020/12/26 03:15:58;;;;;;;1.15;0.73;;;;;;;;;;5106336;28;20385;-69
2020/12/26 03:18:24;;;;;;;1.98;0.30;;;;;;;;;;5091373;28;20032;-69
2020/12/26 03:20:50;;;;;;;0.60;0.60;;;;;;;;;;5085717;28;20107;-69
2020/12/26 03:23:16;;;;;;;1.38;0.90;;;;;;;;;;5086120;28;20020;-69
2020/12/26 03:25:42;;;;;;;0.60;0.60;;;;;;;;;;5086006;28;20034;-69
2020/12/26 03:28:08;;;;;;;0.40;0.40;;;;;;;;;;5086037;28;20514;-69
2020/12/26 03:30:34;;;;;;;0.90;0.88;;;;;;;;;;5085963;28;20032;-69
2020/12/26 03:33:00;;;;;;;0.40;0.20;;;;;;;;;;5085475;28;20142;-69
2020/12/26 03:35:26;;;;;;;0.43;0.40;;;;;;;;;;5085273;28;20320;-69
2020/12/26 03:37:52;;;;;;;0.55;0.40;;;;;;;;;;5086221;28;20032;-69
2020/12/26 03:40:18;;;;;;;0.50;0.43;;;;;;;;;;5086169;28;20547;-69
2020/12/26 03:42:44;;;;;;;0.80;0.57;;;;;;;;;;5085540;28;20047;-69
2020/12/26 03:45:11;;;;;;;0.45;0.20;;;;;;;;;;5085911;28;20024;-69
2020/12/26 03:47:37;;;;;;;0.28;0.22;;;;;;;;;;5090442;28;20453;-69
2020/12/26 03:50:03;;;;;;;0.32;0.32;;;;;;;;;;5107032;28;20366;-69
2020/12/26 03:52:29;;;;;;;0.30;0.30;;;;;;;;;;5108111;28;20088;-69
2020/12/26 03:54:55;;;;;;;0.73;0.40;;;;;;;;;;5109306;28;20417;-69
2020/12/26 03:57:21;;;;;;;0.30;0.30;;;;;;;;;;5110361;28;20024;-69
2020/12/26 03:59:47;;;;;;;0.30;0.30;;;;;;;;;;5109375;28;20028;-69
2020/12/26 04:02:13;;;;;;;1.52;0.30;;;;;;;;;;5110376;28;20067;-69
2020/12/26 04:04:39;;;;;;;2.45;0.55;;;;;;;;;;5109165;28;20020;-69
2020/12/26 04:07:05;;;;;;;0.57;0.30;;;;;;;;;;5109222;28;20756;-69
2020/12/26 04:09:31;;;;;;;0.57;0.43;;;;;;;;;;5109900;28;20027;-69
2020/12/26 04:11:57;;;;;;;0.70;0.70;;;;;;;;;;5109604;28;20039;-69
2020/12/26 04:14:23;;;;;;;0.40;0.40;;;;;;;;;;5109228;28;20030;-69
2020/12/26 04:16:55;;;;;;;1.45;1.10;;;;;;;;;;5109300;28;20385;-69
2020/12/26 04:19:21;;;;;;;0.40;0.40;;;;;;;;;;5110384;28;20039;-69
2020/12/26 04:21:47;;;;;;;0.30;0.30;;;;;;;;;;5109434;28;20547;-69
2020/12/26 04:24:13;;;;;;;0.32;0.30;;;;;;;;;;5090910;28;20413;-69
2020/12/26 04:26:39;;;;;;;0.75;0.47;;;;;;;;;;5109730;28;20031;-69
2020/12/26 04:29:05;;;;;;;0.20;0.20;;;;;;;;;;5109501;28;20049;-69
2020/12/26 04:31:32;;;;;;;0.30;0.20;;;;;;;;;;5109178;28;20032;-69
2020/12/26 04:33:58;;;;;;;1.20;0.50;;;;;;;;;;5108654;28;20028;-69
2020/12/26 04:36:25;;;;;;;0.55;0.30;;;;;;;;;;5108102;28;20157;-69
2020/12/26 04:38:51;;;;;;;0.17;0.17;;;;;;;;;;5081556;28;20027;-69
2020/12/26 04:41:19;;;;;;;0.20;0.20;;;;;;;;;;5089073;28;20504;-69
2020/12/26 04:43:45;;;;;;;0.45;0.30;;;;;;;;;;5088312;28;20055;-69
2020/12/26 04:46:18;;;;;;;0.30;0.30;;;;;;;;;;5088848;28;20012;-69
2020/12/26 04:48:50;;;;;;;0.30;0.30;;;;;;;;;;5088207;28;20024;-69
2020/12/26 04:51:18;;;;;;;0.77;0.50;;;;;;;;;;5089365;28;20301;-69
2020/12/26 04:53:45;;;;;;;0.35;0.30;;;;;;;;;;5087767;28;20194;-69
2020/12/26 04:56:11;;;;;;;0.32;0.32;;;;;;;;;;5088956;28;20070;-69
2020/12/26 04:58:40;;;;;;;0.80;0.40;;;;;;;;;;5088790;28;20023;-69
2020/12/26 05:01:07;;;;;;;0.30;0.30;;;;;;;;;;5088295;28;20032;-69
2020/12/26 05:03:34;;;;;;;0.60;0.40;;;;;;;;;;5087686;28;20609;-69
2020/12/26 05:06:04;;;;;;;0.65;0.32;;;;;;;;;;5087194;28;20039;-69
2020/12/26 05:08:30;;;;;;;0.45;0.30;;;;;;;;;;5088356;28;20036;-69
2020/12/26 05:10:56;;;;;;;1.15;0.30;;;;;;;;;;5087633;28;20414;-69
2020/12/26 05:13:23;;;;;;;0.38;0.32;;;;;;;;;;5088500;28;20490;-69
2020/12/26 05:15:49;;;;;;;0.38;0.30;;;;;;;;;;5088078;28;20063;-69
2020/12/26 05:18:15;;;;;;;0.10;0.10;;;;;;;;;;5102292;28;20521;-69
2020/12/26 05:20:43;;;;;;;0.80;0.73;;;;;;;;;;5108470;28;20400;-69
2020/12/26 05:23:10;;;;;;;0.25;0.25;;;;;;;;;;5108452;28;20027;-69
2020/12/26 05:25:46;;;;;;;0.32;0.32;;;;;;;;;;5108566;28;20438;-69
2020/12/26 05:28:16;;;;;;;0.47;0.30;;;;;;;;;;5108495;28;20536;-69
2020/12/26 05:30:43;;;;;;;0.38;0.35;;;;;;;;;;5108268;28;20428;-69
2020/12/26 05:33:10;;;;;;;0.20;0.20;;;;;;;;;;5108397;28;20028;-69
2020/12/26 05:35:47;;;;;;;0.85;0.30;;;;;;;;;;5107290;28;20085;-69
2020/12/26 05:38:19;;;;;;;0.35;0.30;;;;;;;;;;5108763;28;20112;-69
2020/12/26 05:40:56;;;;;;;0.20;0.10;;;;;;;;;;5107817;28;20054;-69
2020/12/26 05:43:23;;;;;;;0.47;0.38;;;;;;;;;;5108110;28;20023;-69
2020/12/26 05:45:49;;;;;;;0.55;0.43;;;;;;;;;;5108133;28;20042;-69
2020/12/26 05:48:16;;;;;;;0.10;0.10;;;;;;;;;;5098610;28;20403;-69
2020/12/26 05:50:43;;;;;;;0.75;0.50;;;;;;;;;;5087270;28;20505;-69
2020/12/26 05:53:09;;;;;;;0.57;0.40;;;;;;;;;;5087336;28;20134;-69
2020/12/26 05:55:39;;;;;;;2.92;0.82;;;;;;;;;;5087799;28;20036;-69
2020/12/26 05:58:05;;;;;;;1.17;0.47;;;;;;;;;;5087606;28;20031;-69
2020/12/26 06:00:36;;;;;;;0.30;0.22;;;;;;;;;;5087319;28;20024;-69
2020/12/26 06:03:20;;;;;;;0.50;0.30;;;;;;;;;;5086924;28;20028;-69
2020/12/26 06:05:50;;;;;;;0.47;0.15;;;;;;;;;;5085526;28;20039;-69
2020/12/26 06:08:16;;;;;;;0.98;0.32;;;;;;;;;;5086403;28;20110;-69
2020/12/26 06:10:47;;;;;;;0.45;0.20;;;;;;;;;;5086689;28;20493;-69
2020/12/26 06:13:15;;;;;;;0.65;0.43;;;;;;;;;;5087359;28;20036;-69
2020/12/26 06:15:42;;;;;;;0.20;0.20;;;;;;;;;;5086925;28;20551;-69
2020/12/26 06:18:11;;;;;;;0.47;0.20;;;;;;;;;;5087092;28;20024;-69
2020/12/26 06:20:38;;;;;;;2.42;0.50;;;;;;;;;;5087142;28;20032;-69
2020/12/26 06:23:04;;;;;;;0.10;0.10;;;;;;;;;;5086509;28;20109;-69
2020/12/26 06:25:30;;;;;;;0.30;0.30;;;;;;;;;;5086843;28;20660;-69
2020/12/26 06:28:00;;;;;;;1.45;0.17;;;;;;;;;;5086210;28;20620;-69
2020/12/26 06:30:27;;;;;;;0.40;0.30;;;;;;;;;;5087505;28;20085;-69
2020/12/26 06:32:53;;;;;;;1.17;0.30;;;;;;;;;;5085677;28;20020;-69
2020/12/26 06:35:20;;;;;;;0.20;0.20;;;;;;;;;;5085696;28;20402;-69
2020/12/26 06:37:47;;;;;;;3.75;1.58;;;;;;;;;;5097742;28;20039;-69
2020/12/26 06:40:29;;;;;;;0.80;0.60;;;;;;;;;;5107238;28;20022;-69
2020/12/26 06:42:56;;;;;;;1.90;0.30;;;;;;;;;;5106690;28;20032;-69
2020/12/26 06:45:31;;;;;;;0.40;0.40;;;;;;;;;;5107530;28;20500;-69
2020/12/26 06:47:57;;;;;;;0.30;0.20;;;;;;;;;;5106413;28;20393;-69
2020/12/26 06:50:24;;;;;;;0.43;0.40;;;;;;;;;;5107477;28;20062;-69
2020/12/26 06:52:51;;;;;;;0.20;0.15;;;;;;;;;;5105935;28;20024;-69
2020/12/26 06:55:41;;;;;;;0.50;0.40;;;;;;;;;;5107289;28;20023;-69
2020/12/26 06:58:08;;;;;;;0.40;0.22;;;;;;;;;;5106709;28;20028;-69
2020/12/26 07:00:34;;;;;;;2.67;0.52;;;;;;;;;;5107484;28;20122;-69
2020/12/26 07:03:20;;;;;;;0.20;0.20;;;;;;;;;;5105947;28;20031;-69
2020/12/26 07:05:46;;;;;;;0.13;0.13;;;;;;;;;;5105447;28;20028;-69
2020/12/26 07:08:22;;;;;;;0.40;0.40;;;;;;;;;;5106547;28;20425;-69
2020/12/26 07:10:48;;;;;;;1.02;0.90;;;;;;;;;;5106506;28;20040;-69
2020/12/26 07:13:33;;;;;;;0.63;0.63;;;;;;;;;;5106682;28;20055;-69
2020/12/26 07:15:59;;;;;;;0.30;0.22;;;;;;;;;;5106163;28;20063;-69
2020/12/26 07:18:25;;;;;;;0.98;0.40;;;;;;;;;;5091312;28;20020;-69
2020/12/26 07:20:51;;;;;;;0.32;0.30;;;;;;;;;;5086026;28;20036;-69
2020/12/26 07:23:17;;;;;;;0.73;0.60;;;;;;;;;;5085993;28;20024;-69
2020/12/26 07:25:43;;;;;;;0.30;0.30;;;;;;;;;;5085907;28;20122;-69
2020/12/26 07:28:13;;;;;;;0.30;0.30;;;;;;;;;;5089624;28;20051;-69
2020/12/26 07:30:39;;;;;;;1.27;0.40;;;;;;;;;;5090483;28;20024;-69
2020/12/26 07:33:05;;;;;;;0.60;0.30;;;;;;;;;;5090014;28;20305;-69
2020/12/26 07:35:33;;;;;;;0.50;0.50;;;;;;;;;;5089207;28;20016;-69
2020/12/26 07:38:03;;;;;;;0.30;0.30;;;;;;;;;;5090244;28;20741;-69
2020/12/26 07:40:36;;;;;;;0.55;0.40;;;;;;;;;;5090934;28;20032;-69
2020/12/26 07:43:09;;;;;;;0.25;0.13;;;;;;;;;;5089630;28;20028;-69
2020/12/26 07:45:36;;;;;;;0.50;0.30;;;;;;;;;;5090216;28;20032;-69
2020/12/26 07:48:03;;;;;;;0.28;0.25;;;;;;;;;;5097760;28;20150;-69
2020/12/26 07:50:30;;;;;;;0.17;0.17;;;;;;;;;;5110729;28;20095;-69
2020/12/26 07:52:58;;;;;;;0.28;0.28;;;;;;;;;;5109623;28;20533;-69
2020/12/26 07:55:26;;;;;;;0.35;0.30;;;;;;;;;;5110191;28;20497;-69
2020/12/26 07:58:00;;;;;;;0.30;0.30;;;;;;;;;;5110106;28;20100;-69
2020/12/26 08:00:26;;;;;;;0.13;0.13;;;;;;;;;;5110567;28;20067;-69
2020/12/26 08:02:53;;;;;;;2.25;0.40;;;;;;;;;;5109566;28;20024;-69
2020/12/26 08:05:22;;;;;;;0.47;0.40;;;;;;;;;;5108956;28;20028;-69
2020/12/26 08:07:49;;;;;;;1.55;1.02;;;;;;;;;;5109490;28;20080;-69
2020/12/26 08:10:16;;;;;;;0.63;0.40;;;;;;;;;;5110159;28;20106;-69
2020/12/26 08:12:54;;;;;;;0.38;0.20;;;;;;;;;;5108973;28;20038;-69
2020/12/26 08:15:24;;;;;;;0.28;0.28;;;;;;;;;;5109938;28;20034;-69
2020/12/26 08:18:09;;;;;;;0.98;0.50;;;;;;;;;;5109216;28;20073;-69
2020/12/26 08:20:35;;;;;;;0.80;0.30;;;;;;;;;;5110091;28;20073;-69
2020/12/26 08:23:01;;;;;;;0.55;0.20;;;;;;;;;;5108752;28;20038;-69
2020/12/26 08:25:28;;;;;;;0.38;0.38;;;;;;;;;;5109525;28;20378;-69
2020/12/26 08:27:54;;;;;;;0.77;0.70;;;;;;;;;;5109055;28;20093;-69
2020/12/26 08:30:23;;;;;;;0.50;0.50;;;;;;;;;;5109716;28;20081;-69
2020/12/26 08:33:07;;;;;;;0.50;0.50;;;;;;;;;;5108440;28;20032;-69
2020/12/26 08:35:34;;;;;;;0.82;0.63;;;;;;;;;;5108472;28;20019;-69
2020/12/26 08:38:03;;;;;;;0.28;0.28;;;;;;;;;;5094644;28;20062;-69
2020/12/26 08:40:30;;;;;;;0.82;0.60;;;;;;;;;;5088704;28;20020;-69
2020/12/26 08:42:57;;;;;;;0.57;0.57;;;;;;;;;;5088402;28;20519;-69
2020/12/26 08:45:33;;;;;;;1.42;1.10;;;;;;;;;;5088488;28;20062;-69
2020/12/26 08:47:59;;;;;;;0.50;0.50;;;;;;;;;;5088328;28;20464;-69
2020/12/26 08:50:26;;;;;;;1.13;0.98;;;;;;;;;;5089199;28;20028;-69
2020/12/26 08:53:03;;;;;;;0.95;0.85;;;;;;;;;;5088245;28;20059;-69
2020/12/26 08:55:29;;;;;;;0.50;0.50;;;;;;;;;;5088560;28;20020;-69
2020/12/26 08:58:01;;;;;;;0.73;0.73;;;;;;;;;;5088327;28;20035;-69
2020/12/26 09:00:28;;;;;;;0.80;0.80;;;;;;;;;;5086664;28;20154;-69
2020/12/26 09:02:55;;;;;;;0.80;0.80;;;;;;;;;;5087056;28;20051;-69
2020/12/26 09:05:21;;;;;;;0.80;0.80;;;;;;;;;;5086413;28;20553;-69
2020/12/26 09:07:47;;;;;;;0.88;0.70;;;;;;;;;;5087058;28;20020;-69
2020/12/26 09:10:13;;;;;;;0.75;0.60;;;;;;;;;;5088226;28;20032;-69
2020/12/26 09:12:39;;;;;;;0.80;0.80;;;;;;;;;;5087102;28;20494;-69
2020/12/26 09:15:05;;;;;;;0.98;0.80;;;;;;;;;;5087372;28;20271;-69
2020/12/26 09:17:31;;;;;;;1.08;0.90;;;;;;;;;;5096249;28;20019;-69
2020/12/26 09:19:58;;;;;;;0.50;0.50;;;;;;;;;;5107558;28;20042;-69
2020/12/26 09:22:29;;;;;;;0.80;0.77;;;;;;;;;;5107877;28;20543;-69
2020/12/26 09:24:55;;;;;;;1.30;0.80;;;;;;;;;;5107010;28;20051;-69
2020/12/26 09:27:22;;;;;;;1.25;1.13;;;;;;;;;;5108027;28;20051;-69
2020/12/26 09:29:51;;;;;;;1.20;1.10;;;;;;;;;;5107215;28;20087;-69
2020/12/26 09:32:18;;;;;;;0.90;0.90;;;;;;;;;;5107722;28;20043;-69
2020/12/26 09:34:44;;;;;;;2.25;1.60;;;;;;;;;;5107263;28;20394;-69
2020/12/26 09:37:10;;;;;;;2.20;1.73;;;;;;;;;;5107784;28;20114;-69
2020/12/26 09:39:37;;;;;;;1.30;1.20;;;;;;;;;;5108490;28;20036;-69
2020/12/26 09:42:04;;;;;;;1.75;0.90;;;;;;;;;;5108282;28;20034;-69
2020/12/26 09:44:30;;;;;;;1.42;1.33;;;;;;;;;;5107333;28;20119;-69
2020/12/26 09:47:00;;;;;;;1.42;1.15;;;;;;;;;;5107481;28;20213;-69
2020/12/26 09:49:26;;;;;;;1.00;0.90;;;;;;;;;;5088515;28;20476;-69
2020/12/26 09:51:52;;;;;;;1.27;0.93;;;;;;;;;;5086848;28;20407;-69
2020/12/26 09:54:18;;;;;;;1.88;1.13;;;;;;;;;;5087385;28;20470;-69
2020/12/26 09:56:45;;;;;;;1.65;1.30;;;;;;;;;;5087293;28;20039;-69
2020/12/26 09:59:11;;;;;;;1.55;1.13;;;;;;;;;;5087636;28;20015;-69
2020/12/26 10:01:39;;;;;;;1.30;1.20;;;;;;;;;;5087889;28;20043;-69
2020/12/26 10:04:05;;;;;;;1.65;1.40;;;;;;;;;;5086770;28;20371;-69
2020/12/26 10:06:31;;;;;;;1.40;1.30;;;;;;;;;;5086350;28;20119;-69
2020/12/26 10:08:57;;;;;;;1.55;1.10;;;;;;;;;;5086616;28;20040;-69
2020/12/26 10:11:23;;;;;;;1.67;1.33;;;;;;;;;;5087431;28;20032;-69
2020/12/26 10:13:49;;;;;;;2.60;1.65;;;;;;;;;;5086304;28;20035;-69
2020/12/26 10:16:17;;;;;;;1.15;1.05;;;;;;;;;;5087051;28;20789;-69
2020/12/26 10:18:43;;;;;;;1.67;1.30;;;;;;;;;;5087478;28;20028;-69
2020/12/26 10:21:09;;;;;;;1.25;1.10;;;;;;;;;;5087553;28;20179;-69
2020/12/26 10:23:35;;;;;;;3.22;1.15;;;;;;;;;;5086692;28;20583;-69
2020/12/26 10:26:04;;;;;;;1.08;1.08;;;;;;;;;;5086530;28;20410;-69
2020/12/26 10:28:30;;;;;;;1.35;1.20;;;;;;;;;;5086646;28;20070;-69
2020/12/26 10:30:57;;;;;;;1.20;1.10;;;;;;;;;;5086731;28;20035;-69
2020/12/26 10:33:23;;;;;;;1.70;1.10;;;;;;;;;;5086762;28;20028;-69
2020/12/26 10:35:49;;;;;;;1.15;1.05;;;;;;;;;;5084944;28;20374;-69
2020/12/26 10:38:15;;;;;;;1.23;0.85;;;;;;;;;;5102264;28;20028;-69
2020/12/26 10:40:41;;;;;;;1.88;1.20;;;;;;;;;;5106993;28;20047;-69
2020/12/26 10:43:07;;;;;;;1.27;1.13;;;;;;;;;;5107026;28;20096;-69
2020/12/26 10:45:33;;;;;;;1.25;1.15;;;;;;;;;;5107140;28;20024;-69
2020/12/26 10:47:59;;;;;;;2.60;1.67;;;;;;;;;;5106663;28;20028;-69
2020/12/26 10:50:25;;;;;;;1.63;1.52;;;;;;;;;;5107504;28;20028;-69
2020/12/26 10:52:51;;;;;;;2.03;1.15;;;;;;;;;;5106243;28;20446;-69
2020/12/26 10:55:18;;;;;;;1.52;1.42;;;;;;;;;;5107191;28;20031;-69
2020/12/26 10:57:44;;;;;;;2.58;2.08;;;;;;;;;;5105970;28;20482;-69
2020/12/26 11:00:10;;;;;;;1.73;1.50;;;;;;;;;;5107229;28;20024;-69
2020/12/26 11:02:37;;;;;;;2.20;2.00;;;;;;;;;;5105932;28;20065;-69
2020/12/26 11:05:03;;;;;;;1.63;1.52;;;;;;;;;;5105323;28;20028;-69
2020/12/26 11:07:30;;;;;;;1.52;1.40;;;;;;;;;;5106527;28;20035;-69
2020/12/26 11:09:56;;;;;;;3.03;1.58;;;;;;;;;;5106579;28;20408;-69
2020/12/26 11:12:22;;;;;;;1.13;1.00;;;;;;;;;;5106545;28;20027;-69
2020/12/26 11:14:48;;;;;;;0.88;0.88;;;;;;;;;;5105791;28;20488;-69
2020/12/26 11:17:14;;;;;;;1.95;1.13;;;;;;;;;;5101195;28;20454;-69
2020/12/26 11:19:41;;;;;;;1.50;1.00;;;;;;;;;;5086284;28;20032;-69
2020/12/26 11:22:07;;;;;;;1.20;1.10;;;;;;;;;;5086342;28;20389;-69
2020/12/26 11:24:33;;;;;;;1.60;1.13;;;;;;;;;;5086059;28;20146;-69
2020/12/26 11:26:59;;;;;;;1.77;1.35;;;;;;;;;;5086107;28;20036;-69
2020/12/26 11:29:25;;;;;;;1.98;1.20;;;;;;;;;;5086334;28;20059;-69
2020/12/26 11:31:52;;;;;;;0.90;0.90;;;;;;;;;;5086105;28;20119;-69
2020/12/26 11:34:18;;;;;;;1.20;1.10;;;;;;;;;;5086258;28;20685;-69
2020/12/26 11:36:44;;;;;;;1.40;1.20;;;;;;;;;;5084587;28;20059;-69
2020/12/26 11:39:10;;;;;;;1.27;0.77;;;;;;;;;;5086545;28;20032;-69
2020/12/26 11:41:36;;;;;;;1.48;1.38;;;;;;;;;;5086407;28;20116;-69
2020/12/26 11:44:03;;;;;;;1.58;1.05;;;;;;;;;;5085691;28;20024;-69
2020/12/26 11:46:29;;;;;;;1.25;0.90;;;;;;;;;;5086639;28;20028;-69
2020/12/26 11:48:55;;;;;;;1.73;1.30;;;;;;;;;;5100809;28;20015;-69
2020/12/26 11:51:21;;;;;;;1.80;1.10;;;;;;;;;;5107522;28;20028;-69
2020/12/26 11:53:47;;;;;;;1.65;1.25;;;;;;;;;;5105633;28;20024;-69
2020/12/26 11:56:16;;;;;;;4.95;1.25;;;;;;;;;;5106709;28;20046;-69
2020/12/26 11:58:42;;;;;;;1.58;1.05;;;;;;;;;;5106021;28;20398;-69
2020/12/26 12:01:09;;;;;;;1.58;1.30;;;;;;;;;;5106522;28;20470;-69
2020/12/26 12:03:35;;;;;;;1.67;1.13;;;;;;;;;;5106237;28;20030;-69
2020/12/26 12:06:01;;;;;;;1.20;1.10;;;;;;;;;;5104965;28;20398;-69
2020/12/26 12:08:27;;;;;;;1.20;1.10;;;;;;;;;;5106788;28;20031;-69
2020/12/26 12:10:54;;;;;;;1.83;0.85;;;;;;;;;;5106327;28;20058;-69
2020/12/26 12:13:20;;;;;;;1.38;1.27;;;;;;;;;;5107880;28;20034;-69
2020/12/26 12:15:46;;;;;;;0.98;0.90;;;;;;;;;;5109620;28;20035;-69
2020/12/26 12:18:12;;;;;;;2.38;1.27;;;;;;;;;;5110064;28;20019;-69
2020/12/26 12:20:38;;;;;;;1.10;0.93;;;;;;;;;;5110153;28;20019;-69
2020/12/26 12:23:05;;;;;;;1.08;1.00;;;;;;;;;;5109291;28;20034;-69
2020/12/26 12:25:31;;;;;;;1.02;0.90;;;;;;;;;;5109703;28;20504;-69
2020/12/26 12:27:58;;;;;;;1.10;1.00;;;;;;;;;;5109114;28;20109;-69
2020/12/26 12:30:24;;;;;;;1.10;0.90;;;;;;;;;;5110329;28;20460;-69
2020/12/26 12:32:50;;;;;;;1.02;0.93;;;;;;;;;;5108535;28;20429;-69
2020/12/26 12:35:17;;;;;;;0.88;0.60;;;;;;;;;;5108574;28;20418;-69
2020/12/26 12:37:50;;;;;;;1.08;0.80;;;;;;;;;;5098315;28;20514;-69
2020/12/26 12:40:16;;;;;;;2.70;1.40;;;;;;;;;;5089496;28;20024;-69
2020/12/26 12:42:42;;;;;;;0.85;0.80;;;;;;;;;;5088592;28;20258;-69
2020/12/26 12:45:08;;;;;;;1.88;1.77;;;;;;;;;;5089353;28;20024;-69
2020/12/26 12:47:34;;;;;;;1.08;0.90;;;;;;;;;;5089243;28;20103;-69
2020/12/26 12:50:00;;;;;;;1.05;0.95;;;;;;;;;;5088714;28;20032;-69
2020/12/26 12:52:26;;;;;;;1.00;0.98;;;;;;;;;;5088835;28;20070;-69
2020/12/26 12:54:52;;;;;;;0.82;0.82;;;;;;;;;;5070135;28;20390;-69
2020/12/26 12:57:18;;;;;;;1.10;1.00;;;;;;;;;;5088844;28;20031;-69
2020/12/26 12:59:44;;;;;;;1.92;0.80;;;;;;;;;;5088465;28;20023;-69
2020/12/26 13:02:11;;;;;;;1.65;1.00;;;;;;;;;;5088900;28;20028;-69
2020/12/26 13:04:38;;;;;;;1.30;0.80;;;;;;;;;;5087916;28;20031;-69
2020/12/26 13:07:04;;;;;;;1.25;1.13;;;;;;;;;;5087520;28;20043;-69
2020/12/26 13:09:31;;;;;;;0.68;0.68;;;;;;;;;;5088440;28;20024;-69
2020/12/26 13:11:57;;;;;;;1.15;0.93;;;;;;;;;;5087842;28;20036;-69
2020/12/26 13:14:23;;;;;;;1.20;1.10;;;;;;;;;;5088633;28;20024;-69
2020/12/26 13:16:49;;;;;;;6.03;1.77;;;;;;;;;;5089725;28;20111;-69
2020/12/26 13:19:15;;;;;;;2.03;1.35;;;;;;;;;;5109400;28;20019;-69
2020/12/26 13:21:41;;;;;;;2.10;1.63;;;;;;;;;;5108429;28;20024;-70
2020/12/26 13:24:07;;;;;;;2.05;1.20;;;;;;;;;;5107702;28;20023;-69
2020/12/26 13:26:33;;;;;;;1.50;1.33;;;;;;;;;;5108826;28;20118;-69
2020/12/26 13:29:00;;;;;;;1.85;1.20;;;;;;;;;;5108107;28;20369;-69
2020/12/26 13:31:27;;;;;;;1.77;1.27;;;;;;;;;;5109129;28;20035;-69
2020/12/26 13:33:53;;;;;;;1.65;1.42;;;;;;;;;;5107399;28;20028;-69
2020/12/26 13:36:19;;;;;;;1.35;1.27;;;;;;;;;;5107598;28;20020;-69
2020/12/26 13:38:45;;;;;;;1.75;1.30;;;;;;;;;;5108311;28;20506;-70
2020/12/26 13:41:12;;;;;;;1.95;1.40;;;;;;;;;;5108646;28;20538;-69
2020/12/26 13:43:38;;;;;;;2.58;1.77;;;;;;;;;;5108218;28;20055;-69
2020/12/26 13:46:04;;;;;;;1.77;1.40;;;;;;;;;;5108084;28;20051;-69
2020/12/26 13:48:30;;;;;;;2.08;1.20;;;;;;;;;;5096684;28;20032;-69
2020/12/26 13:50:56;;;;;;;1.58;1.30;;;;;;;;;;5087384;28;20067;-69
2020/12/26 13:53:22;;;;;;;1.45;1.15;;;;;;;;;;5087774;28;20106;-69
2020/12/26 13:55:49;;;;;;;2.47;2.28;;;;;;;;;;5087196;28;20069;-69
2020/12/26 13:58:15;;;;;;;1.33;1.10;;;;;;;;;;5087845;28;20023;-69
2020/12/26 14:00:41;;;;;;;1.50;1.40;;;;;;;;;;5078745;28;20111;-69
2020/12/26 14:03:07;;;;;;;1.35;1.20;;;;;;;;;;5087069;28;20067;-69
2020/12/26 14:05:33;;;;;;;1.77;1.17;;;;;;;;;;5086412;28;20016;-69
2020/12/26 14:07:59;;;;;;;2.15;1.80;;;;;;;;;;5087306;28;20032;-69
2020/12/26 14:10:25;;;;;;;2.15;1.85;;;;;;;;;;5087484;28;20031;-69
2020/12/26 14:12:51;;;;;;;1.20;1.10;;;;;;;;;;5087015;28;20509;-69
2020/12/26 14:15:17;;;;;;;3.17;2.40;;;;;;;;;;5087480;28;20089;-69
2020/12/26 14:17:43;;;;;;;2.88;1.70;;;;;;;;;;5087121;28;20036;-69
2020/12/26 14:20:09;;;;;;;1.65;1.55;;;;;;;;;;5087588;28;20020;-69
2020/12/26 14:22:36;;;;;;;2.47;1.80;;;;;;;;;;5087478;28;20024;-69
2020/12/26 14:25:02;;;;;;;7.05;1.63;;;;;;;;;;5086572;28;20413;-69
2020/12/26 14:27:28;;;;;;;1.70;1.48;;;;;;;;;;5087674;28;20031;-69
2020/12/26 14:29:54;;;;;;;2.00;1.30;;;;;;;;;;5086329;28;20054;-69
2020/12/26 14:32:20;;;;;;;1.95;1.10;;;;;;;;;;5087291;28;20031;-69
2020/12/26 14:34:46;;;;;;;1.83;1.38;;;;;;;;;;5085599;28;20051;-69
2020/12/26 14:37:13;;;;;;;1.23;1.17;;;;;;;;;;5092013;28;20394;-69
2020/12/26 14:39:39;;;;;;;1.67;1.08;;;;;;;;;;5107284;28;20028;-69
2020/12/26 14:42:06;;;;;;;4.13;1.30;;;;;;;;;;5107374;28;20492;-69